sensor_id;sensor_type;location;lat;lon;timestamp;P1;durP1;ratioP1;P2;durP2;ratioP2
20065;SDS011;10193;48.884;9.182;2024-01-30T00:01:56;6.80;;;5.30;;
20065;SDS011;10193;48.884;9.182;2024-01-30T00:04:23;7.38;;;5.43;;
20065;SDS011;10193;48.884;9.182;2024-01-30T00:06:51;8.00;;;6.10;;
20065;SDS011;10193;48.884;9.182;2024-01-30T00:09:18;7.63;;;5.78;;
20065;SDS011;10193;48.884;9.182;2024-01-30T00:11:45;6.70;;;5.53;;
20065;SDS011;10193;48.884;9.182;2024-01-30T00:14:12;6.75;;;5.72;;
20065;SDS011;10193;48.884;9.182;2024-01-30T00:16:39;6.80;;;5.43;;
20065;SDS011;10193;48.884;9.182;2024-01-30T00:19:05;7.60;;;5.55;;
20065;SDS011;10193;48.884;9.182;2024-01-30T00:21:33;7.87;;;5.70;;
20065;SDS011;10193;48.884;9.182;2024-01-30T00:24:01;7.05;;;5.53;;
20065;SDS011;10193;48.884;9.182;2024-01-30T00:26:28;6.13;;;5.53;;
20065;SDS011;10193;48.884;9.182;2024-01-30T00:28:54;8.30;;;5.25;;
20065;SDS011;10193;48.884;9.182;2024-01-30T00:31:21;6.25;;;5.53;;
20065;SDS011;10193;48.884;9.182;2024-01-30T00:33:48;7.40;;;5.90;;
20065;SDS011;10193;48.884;9.182;2024-01-30T00:36:14;7.47;;;5.70;;
20065;SDS011;10193;48.884;9.182;2024-01-30T00:38:41;7.90;;;6.03;;
20065;SDS011;10193;48.884;9.182;2024-01-30T00:41:09;9.52;;;5.85;;
20065;SDS011;10193;48.884;9.182;2024-01-30T00:43:36;7.87;;;6.20;;
20065;SDS011;10193;48.884;9.182;2024-01-30T00:46:03;8.90;;;6.33;;
20065;SDS011;10193;48.884;9.182;2024-01-30T00:48:29;8.27;;;6.10;;
20065;SDS011;10193;48.884;9.182;2024-01-30T00:50:56;7.07;;;6.00;;
20065;SDS011;10193;48.884;9.182;2024-01-30T00:53:23;10.10;;;5.97;;
20065;SDS011;10193;48.884;9.182;2024-01-30T00:55:49;8.63;;;6.22;;
20065;SDS011;10193;48.884;9.182;2024-01-30T00:58:17;7.82;;;6.38;;
20065;SDS011;10193;48.884;9.182;2024-01-30T01:00:45;8.25;;;6.18;;
20065;SDS011;10193;48.884;9.182;2024-01-30T01:03:11;7.88;;;6.20;;
20065;SDS011;10193;48.884;9.182;2024-01-30T01:05:39;8.00;;;6.30;;
20065;SDS011;10193;48.884;9.182;2024-01-30T01:08:06;8.40;;;6.03;;
20065;SDS011;10193;48.884;9.182;2024-01-30T01:10:32;7.30;;;6.18;;
20065;SDS011;10193;48.884;9.182;2024-01-30T01:12:59;8.18;;;6.18;;
20065;SDS011;10193;48.884;9.182;2024-01-30T01:15:27;8.70;;;6.03;;
20065;SDS011;10193;48.884;9.182;2024-01-30T01:17:53;8.20;;;6.23;;
20065;SDS011;10193;48.884;9.182;2024-01-30T01:20:20;7.90;;;6.25;;
20065;SDS011;10193;48.884;9.182;2024-01-30T01:22:47;8.15;;;6.28;;
20065;SDS011;10193;48.884;9.182;2024-01-30T01:25:14;8.20;;;6.05;;
20065;SDS011;10193;48.884;9.182;2024-01-30T01:27:40;7.60;;;5.95;;
20065;SDS011;10193;48.884;9.182;2024-01-30T01:30:09;8.67;;;6.80;;
20065;SDS011;10193;48.884;9.182;2024-01-30T01:32:40;9.17;;;6.60;;
20065;SDS011;10193;48.884;9.182;2024-01-30T01:35:14;7.50;;;6.10;;
20065;SDS011;10193;48.884;9.182;2024-01-30T01:37:40;8.05;;;6.45;;
20065;SDS011;10193;48.884;9.182;2024-01-30T01:40:07;9.60;;;6.67;;
20065;SDS011;10193;48.884;9.182;2024-01-30T01:42:35;8.60;;;6.63;;
20065;SDS011;10193;48.884;9.182;2024-01-30T01:45:01;7.93;;;6.30;;
20065;SDS011;10193;48.884;9.182;2024-01-30T01:47:28;9.93;;;6.65;;
20065;SDS011;10193;48.884;9.182;2024-01-30T01:49:57;8.03;;;6.37;;
20065;SDS011;10193;48.884;9.182;2024-01-30T01:52:23;6.95;;;6.03;;
20065;SDS011;10193;48.884;9.182;2024-01-30T01:54:50;10.13;;;7.20;;
20065;SDS011;10193;48.884;9.182;2024-01-30T01:57:17;10.10;;;6.70;;
20065;SDS011;10193;48.884;9.182;2024-01-30T01:59:44;8.10;;;6.43;;
20065;SDS011;10193;48.884;9.182;2024-01-30T02:02:10;7.45;;;6.38;;
20065;SDS011;10193;48.884;9.182;2024-01-30T02:04:38;9.23;;;6.23;;
20065;SDS011;10193;48.884;9.182;2024-01-30T02:07:06;7.77;;;6.37;;
20065;SDS011;10193;48.884;9.182;2024-01-30T02:09:33;8.48;;;6.90;;
20065;SDS011;10193;48.884;9.182;2024-01-30T02:12:00;9.27;;;6.77;;
20065;SDS011;10193;48.884;9.182;2024-01-30T02:14:27;8.73;;;6.25;;
20065;SDS011;10193;48.884;9.182;2024-01-30T02:16:53;7.77;;;6.50;;
20065;SDS011;10193;48.884;9.182;2024-01-30T02:19:20;8.50;;;6.40;;
20065;SDS011;10193;48.884;9.182;2024-01-30T02:21:48;9.37;;;6.07;;
20065;SDS011;10193;48.884;9.182;2024-01-30T02:24:15;7.73;;;6.07;;
20065;SDS011;10193;48.884;9.182;2024-01-30T02:26:42;10.07;;;6.33;;
20065;SDS011;10193;48.884;9.182;2024-01-30T02:29:10;8.30;;;6.40;;
20065;SDS011;10193;48.884;9.182;2024-01-30T02:31:36;6.97;;;5.90;;
20065;SDS011;10193;48.884;9.182;2024-01-30T02:34:04;6.93;;;5.97;;
20065;SDS011;10193;48.884;9.182;2024-01-30T02:36:30;8.87;;;6.37;;
20065;SDS011;10193;48.884;9.182;2024-01-30T02:38:58;7.20;;;6.17;;
20065;SDS011;10193;48.884;9.182;2024-01-30T02:41:25;7.07;;;6.17;;
20065;SDS011;10193;48.884;9.182;2024-01-30T02:43:52;8.07;;;6.33;;
20065;SDS011;10193;48.884;9.182;2024-01-30T02:46:18;7.83;;;6.23;;
20065;SDS011;10193;48.884;9.182;2024-01-30T02:48:45;7.70;;;6.33;;
20065;SDS011;10193;48.884;9.182;2024-01-30T02:51:12;8.13;;;6.20;;
20065;SDS011;10193;48.884;9.182;2024-01-30T02:53:38;7.10;;;6.07;;
20065;SDS011;10193;48.884;9.182;2024-01-30T02:56:06;7.83;;;6.50;;
20065;SDS011;10193;48.884;9.182;2024-01-30T02:58:34;6.33;;;5.73;;
20065;SDS011;10193;48.884;9.182;2024-01-30T03:01:01;8.40;;;6.50;;
20065;SDS011;10193;48.884;9.182;2024-01-30T03:03:28;7.77;;;6.63;;
20065;SDS011;10193;48.884;9.182;2024-01-30T03:05:55;9.03;;;5.80;;
20065;SDS011;10193;48.884;9.182;2024-01-30T03:08:21;8.53;;;6.10;;
20065;SDS011;10193;48.884;9.182;2024-01-30T03:10:48;6.80;;;5.97;;
20065;SDS011;10193;48.884;9.182;2024-01-30T03:13:16;6.97;;;6.03;;
20065;SDS011;10193;48.884;9.182;2024-01-30T03:15:43;6.53;;;5.57;;
20065;SDS011;10193;48.884;9.182;2024-01-30T03:18:10;7.57;;;5.67;;
20065;SDS011;10193;48.884;9.182;2024-01-30T03:20:36;6.83;;;5.30;;
20065;SDS011;10193;48.884;9.182;2024-01-30T03:23:03;6.83;;;5.60;;
20065;SDS011;10193;48.884;9.182;2024-01-30T03:25:30;6.40;;;5.63;;
20065;SDS011;10193;48.884;9.182;2024-01-30T03:27:57;7.07;;;5.87;;
20065;SDS011;10193;48.884;9.182;2024-01-30T03:30:25;6.50;;;5.70;;
20065;SDS011;10193;48.884;9.182;2024-01-30T03:32:52;7.30;;;5.33;;
20065;SDS011;10193;48.884;9.182;2024-01-30T03:35:18;5.90;;;5.30;;
20065;SDS011;10193;48.884;9.182;2024-01-30T03:37:45;6.37;;;5.47;;
20065;SDS011;10193;48.884;9.182;2024-01-30T03:40:12;5.80;;;5.20;;
20065;SDS011;10193;48.884;9.182;2024-01-30T03:42:39;6.97;;;5.40;;
20065;SDS011;10193;48.884;9.182;2024-01-30T03:45:06;7.13;;;5.50;;
20065;SDS011;10193;48.884;9.182;2024-01-30T03:47:35;5.70;;;5.10;;
20065;SDS011;10193;48.884;9.182;2024-01-30T03:50:01;6.63;;;5.50;;
20065;SDS011;10193;48.884;9.182;2024-01-30T03:52:29;6.03;;;5.17;;
20065;SDS011;10193;48.884;9.182;2024-01-30T03:54:56;7.73;;;5.23;;
20065;SDS011;10193;48.884;9.182;2024-01-30T03:57:23;6.77;;;5.20;;
20065;SDS011;10193;48.884;9.182;2024-01-30T03:59:49;7.27;;;5.73;;
20065;SDS011;10193;48.884;9.182;2024-01-30T04:02:16;6.23;;;5.13;;
20065;SDS011;10193;48.884;9.182;2024-01-30T04:04:44;5.70;;;5.00;;
20065;SDS011;10193;48.884;9.182;2024-01-30T04:07:11;6.17;;;5.47;;
20065;SDS011;10193;48.884;9.182;2024-01-30T04:09:38;6.93;;;5.53;;
20065;SDS011;10193;48.884;9.182;2024-01-30T04:12:05;9.30;;;5.90;;
20065;SDS011;10193;48.884;9.182;2024-01-30T04:14:32;7.93;;;5.70;;
20065;SDS011;10193;48.884;9.182;2024-01-30T04:16:59;5.67;;;5.10;;
20065;SDS011;10193;48.884;9.182;2024-01-30T04:19:25;6.00;;;5.30;;
20065;SDS011;10193;48.884;9.182;2024-01-30T04:21:53;6.23;;;5.30;;
20065;SDS011;10193;48.884;9.182;2024-01-30T04:24:20;6.50;;;5.33;;
20065;SDS011;10193;48.884;9.182;2024-01-30T04:26:47;5.67;;;5.03;;
20065;SDS011;10193;48.884;9.182;2024-01-30T04:29:13;5.80;;;5.03;;
20065;SDS011;10193;48.884;9.182;2024-01-30T04:31:40;6.37;;;5.37;;
20065;SDS011;10193;48.884;9.182;2024-01-30T04:34:06;6.13;;;5.30;;
20065;SDS011;10193;48.884;9.182;2024-01-30T04:36:33;7.47;;;5.57;;
20065;SDS011;10193;48.884;9.182;2024-01-30T04:39:01;7.27;;;5.70;;
20065;SDS011;10193;48.884;9.182;2024-01-30T04:41:28;6.23;;;5.37;;
20065;SDS011;10193;48.884;9.182;2024-01-30T04:43:57;6.67;;;5.97;;
20065;SDS011;10193;48.884;9.182;2024-01-30T04:46:23;6.33;;;5.73;;
20065;SDS011;10193;48.884;9.182;2024-01-30T04:48:50;6.50;;;5.60;;
20065;SDS011;10193;48.884;9.182;2024-01-30T04:51:16;7.47;;;6.20;;
20065;SDS011;10193;48.884;9.182;2024-01-30T04:53:43;7.53;;;5.90;;
20065;SDS011;10193;48.884;9.182;2024-01-30T04:56:11;7.03;;;5.70;;
20065;SDS011;10193;48.884;9.182;2024-01-30T04:58:38;7.27;;;5.47;;
20065;SDS011;10193;48.884;9.182;2024-01-30T05:01:04;6.50;;;5.77;;
20065;SDS011;10193;48.884;9.182;2024-01-30T05:03:32;7.37;;;5.70;;
20065;SDS011;10193;48.884;9.182;2024-01-30T05:05:59;6.47;;;5.60;;
20065;SDS011;10193;48.884;9.182;2024-01-30T05:08:26;6.23;;;5.63;;
20065;SDS011;10193;48.884;9.182;2024-01-30T05:10:52;6.13;;;5.53;;
20065;SDS011;10193;48.884;9.182;2024-01-30T05:13:20;6.57;;;5.77;;
20065;SDS011;10193;48.884;9.182;2024-01-30T05:15:47;6.30;;;5.70;;
20065;SDS011;10193;48.884;9.182;2024-01-30T05:18:14;6.40;;;5.77;;
20065;SDS011;10193;48.884;9.182;2024-01-30T05:20:40;6.50;;;5.57;;
20065;SDS011;10193;48.884;9.182;2024-01-30T05:23:07;6.53;;;5.27;;
20065;SDS011;10193;48.884;9.182;2024-01-30T05:25:34;6.77;;;5.50;;
20065;SDS011;10193;48.884;9.182;2024-01-30T05:28:00;6.30;;;5.40;;
20065;SDS011;10193;48.884;9.182;2024-01-30T05:30:29;6.63;;;5.47;;
20065;SDS011;10193;48.884;9.182;2024-01-30T05:32:55;6.20;;;5.60;;
20065;SDS011;10193;48.884;9.182;2024-01-30T05:35:22;6.07;;;5.47;;
20065;SDS011;10193;48.884;9.182;2024-01-30T05:37:49;7.37;;;5.63;;
20065;SDS011;10193;48.884;9.182;2024-01-30T05:40:16;6.60;;;5.77;;
20065;SDS011;10193;48.884;9.182;2024-01-30T05:42:42;8.23;;;5.57;;
20065;SDS011;10193;48.884;9.182;2024-01-30T05:45:09;6.30;;;5.40;;
20065;SDS011;10193;48.884;9.182;2024-01-30T05:47:37;6.17;;;5.40;;
20065;SDS011;10193;48.884;9.182;2024-01-30T05:50:04;6.63;;;5.80;;
20065;SDS011;10193;48.884;9.182;2024-01-30T05:52:32;6.37;;;5.60;;
20065;SDS011;10193;48.884;9.182;2024-01-30T05:54:58;5.77;;;5.23;;
20065;SDS011;10193;48.884;9.182;2024-01-30T05:57:25;6.50;;;5.17;;
20065;SDS011;10193;48.884;9.182;2024-01-30T05:59:51;8.93;;;5.53;;
20065;SDS011;10193;48.884;9.182;2024-01-30T06:02:18;7.37;;;5.57;;
20065;SDS011;10193;48.884;9.182;2024-01-30T06:04:46;6.00;;;5.37;;
20065;SDS011;10193;48.884;9.182;2024-01-30T06:07:12;6.27;;;5.37;;
20065;SDS011;10193;48.884;9.182;2024-01-30T06:09:39;6.77;;;5.70;;
20065;SDS011;10193;48.884;9.182;2024-01-30T06:12:06;6.23;;;5.57;;
20065;SDS011;10193;48.884;9.182;2024-01-30T06:14:33;6.13;;;5.53;;
20065;SDS011;10193;48.884;9.182;2024-01-30T06:16:59;6.70;;;5.43;;
20065;SDS011;10193;48.884;9.182;2024-01-30T06:19:26;6.40;;;5.80;;
20065;SDS011;10193;48.884;9.182;2024-01-30T06:21:54;6.73;;;5.20;;
20065;SDS011;10193;48.884;9.182;2024-01-30T06:24:23;6.90;;;6.10;;
20065;SDS011;10193;48.884;9.182;2024-01-30T06:26:50;6.53;;;5.20;;
20065;SDS011;10193;48.884;9.182;2024-01-30T06:29:16;6.90;;;5.77;;
20065;SDS011;10193;48.884;9.182;2024-01-30T06:31:43;7.70;;;5.50;;
20065;SDS011;10193;48.884;9.182;2024-01-30T06:34:10;6.80;;;6.10;;
20065;SDS011;10193;48.884;9.182;2024-01-30T06:36:37;7.33;;;6.10;;
20065;SDS011;10193;48.884;9.182;2024-01-30T06:39:05;5.97;;;5.37;;
20065;SDS011;10193;48.884;9.182;2024-01-30T06:41:32;7.43;;;5.50;;
20065;SDS011;10193;48.884;9.182;2024-01-30T06:43:59;7.33;;;6.00;;
20065;SDS011;10193;48.884;9.182;2024-01-30T06:46:28;6.37;;;5.70;;
20065;SDS011;10193;48.884;9.182;2024-01-30T06:48:54;6.63;;;5.90;;
20065;SDS011;10193;48.884;9.182;2024-01-30T06:51:21;6.33;;;5.70;;
20065;SDS011;10193;48.884;9.182;2024-01-30T06:53:47;6.23;;;5.40;;
20065;SDS011;10193;48.884;9.182;2024-01-30T06:56:15;6.70;;;5.60;;
20065;SDS011;10193;48.884;9.182;2024-01-30T06:58:45;6.10;;;5.00;;
20065;SDS011;10193;48.884;9.182;2024-01-30T07:01:12;5.90;;;5.30;;
20065;SDS011;10193;48.884;9.182;2024-01-30T07:03:39;6.40;;;5.40;;
20065;SDS011;10193;48.884;9.182;2024-01-30T07:06:06;7.03;;;5.20;;
20065;SDS011;10193;48.884;9.182;2024-01-30T07:08:32;6.93;;;5.40;;
20065;SDS011;10193;48.884;9.182;2024-01-30T07:10:59;6.73;;;5.60;;
20065;SDS011;10193;48.884;9.182;2024-01-30T07:13:27;5.87;;;5.27;;
20065;SDS011;10193;48.884;9.182;2024-01-30T07:15:54;7.43;;;5.60;;
20065;SDS011;10193;48.884;9.182;2024-01-30T07:18:20;7.03;;;5.43;;
20065;SDS011;10193;48.884;9.182;2024-01-30T07:20:47;9.97;;;7.07;;
20065;SDS011;10193;48.884;9.182;2024-01-30T07:23:14;8.13;;;7.17;;
20065;SDS011;10193;48.884;9.182;2024-01-30T07:25:42;7.97;;;6.60;;
20065;SDS011;10193;48.884;9.182;2024-01-30T07:28:09;8.50;;;6.83;;
20065;SDS011;10193;48.884;9.182;2024-01-30T07:30:38;11.43;;;6.70;;
20065;SDS011;10193;48.884;9.182;2024-01-30T07:33:05;6.47;;;5.67;;
20065;SDS011;10193;48.884;9.182;2024-01-30T07:35:31;6.57;;;5.77;;
20065;SDS011;10193;48.884;9.182;2024-01-30T07:37:58;7.23;;;5.80;;
20065;SDS011;10193;48.884;9.182;2024-01-30T07:40:25;7.00;;;5.87;;
20065;SDS011;10193;48.884;9.182;2024-01-30T07:42:53;6.40;;;5.80;;
20065;SDS011;10193;48.884;9.182;2024-01-30T07:45:20;6.87;;;5.67;;
20065;SDS011;10193;48.884;9.182;2024-01-30T07:47:49;6.77;;;5.87;;
20065;SDS011;10193;48.884;9.182;2024-01-30T07:50:15;7.10;;;6.00;;
20065;SDS011;10193;48.884;9.182;2024-01-30T07:52:43;6.27;;;5.67;;
20065;SDS011;10193;48.884;9.182;2024-01-30T07:55:10;6.10;;;5.37;;
20065;SDS011;10193;48.884;9.182;2024-01-30T07:57:38;6.87;;;5.53;;
20065;SDS011;10193;48.884;9.182;2024-01-30T08:00:05;6.23;;;5.40;;
20065;SDS011;10193;48.884;9.182;2024-01-30T08:02:32;6.43;;;5.70;;
20065;SDS011;10193;48.884;9.182;2024-01-30T08:05:01;6.80;;;6.10;;
20065;SDS011;10193;48.884;9.182;2024-01-30T08:07:27;6.53;;;5.87;;
20065;SDS011;10193;48.884;9.182;2024-01-30T08:09:54;7.60;;;6.07;;
20065;SDS011;10193;48.884;9.182;2024-01-30T08:12:21;6.33;;;5.60;;
20065;SDS011;10193;48.884;9.182;2024-01-30T08:14:48;7.70;;;5.80;;
20065;SDS011;10193;48.884;9.182;2024-01-30T08:17:14;6.80;;;6.10;;
20065;SDS011;10193;48.884;9.182;2024-01-30T08:19:41;7.53;;;5.87;;
20065;SDS011;10193;48.884;9.182;2024-01-30T08:22:09;7.90;;;6.40;;
20065;SDS011;10193;48.884;9.182;2024-01-30T08:24:37;7.03;;;5.93;;
20065;SDS011;10193;48.884;9.182;2024-01-30T08:27:05;6.33;;;5.77;;
20065;SDS011;10193;48.884;9.182;2024-01-30T08:29:34;6.60;;;5.90;;
20065;SDS011;10193;48.884;9.182;2024-01-30T08:32:01;8.27;;;6.67;;
20065;SDS011;10193;48.884;9.182;2024-01-30T08:34:28;8.47;;;6.73;;
20065;SDS011;10193;48.884;9.182;2024-01-30T08:36:54;10.23;;;6.53;;
20065;SDS011;10193;48.884;9.182;2024-01-30T08:39:22;7.00;;;6.00;;
20065;SDS011;10193;48.884;9.182;2024-01-30T08:41:49;6.90;;;6.20;;
20065;SDS011;10193;48.884;9.182;2024-01-30T08:44:16;8.13;;;6.10;;
20065;SDS011;10193;48.884;9.182;2024-01-30T08:46:43;7.78;;;6.45;;
20065;SDS011;10193;48.884;9.182;2024-01-30T08:49:10;6.55;;;5.72;;
20065;SDS011;10193;48.884;9.182;2024-01-30T08:51:38;7.60;;;6.18;;
20065;SDS011;10193;48.884;9.182;2024-01-30T08:54:04;7.93;;;6.07;;
20065;SDS011;10193;48.884;9.182;2024-01-30T08:56:33;8.67;;;6.40;;
20065;SDS011;10193;48.884;9.182;2024-01-30T08:58:59;7.37;;;6.53;;
20065;SDS011;10193;48.884;9.182;2024-01-30T09:01:26;6.82;;;5.68;;
20065;SDS011;10193;48.884;9.182;2024-01-30T09:03:53;6.32;;;5.72;;
20065;SDS011;10193;48.884;9.182;2024-01-30T09:06:19;6.43;;;5.72;;
20065;SDS011;10193;48.884;9.182;2024-01-30T09:08:46;6.55;;;5.78;;
20065;SDS011;10193;48.884;9.182;2024-01-30T09:11:13;7.22;;;5.90;;
20065;SDS011;10193;48.884;9.182;2024-01-30T09:13:42;6.00;;;5.40;;
20065;SDS011;10193;48.884;9.182;2024-01-30T09:16:09;6.18;;;5.57;;
20065;SDS011;10193;48.884;9.182;2024-01-30T09:18:36;5.85;;;5.25;;
20065;SDS011;10193;48.884;9.182;2024-01-30T09:21:04;6.35;;;5.30;;
20065;SDS011;10193;48.884;9.182;2024-01-30T09:23:31;6.05;;;5.45;;
20065;SDS011;10193;48.884;9.182;2024-01-30T09:25:58;7.20;;;5.57;;
20065;SDS011;10193;48.884;9.182;2024-01-30T09:28:25;7.40;;;5.78;;
20065;SDS011;10193;48.884;9.182;2024-01-30T09:30:53;6.90;;;5.50;;
20065;SDS011;10193;48.884;9.182;2024-01-30T09:33:20;6.55;;;5.78;;
20065;SDS011;10193;48.884;9.182;2024-01-30T09:35:46;8.25;;;5.90;;
20065;SDS011;10193;48.884;9.182;2024-01-30T09:38:13;6.50;;;5.38;;
20065;SDS011;10193;48.884;9.182;2024-01-30T09:40:40;6.65;;;5.88;;
20065;SDS011;10193;48.884;9.182;2024-01-30T09:43:07;6.85;;;6.15;;
20065;SDS011;10193;48.884;9.182;2024-01-30T09:45:37;6.57;;;5.97;;
20065;SDS011;10193;48.884;9.182;2024-01-30T09:48:07;6.78;;;6.07;;
20065;SDS011;10193;48.884;9.182;2024-01-30T09:50:34;7.45;;;6.40;;
20065;SDS011;10193;48.884;9.182;2024-01-30T09:53:02;6.75;;;6.07;;
20065;SDS011;10193;48.884;9.182;2024-01-30T09:55:31;8.02;;;6.35;;
20065;SDS011;10193;48.884;9.182;2024-01-30T09:57:57;7.18;;;5.93;;
20065;SDS011;10193;48.884;9.182;2024-01-30T10:00:24;7.43;;;6.10;;
20065;SDS011;10193;48.884;9.182;2024-01-30T10:02:52;6.22;;;5.63;;
20065;SDS011;10193;48.884;9.182;2024-01-30T10:05:20;7.28;;;5.97;;
20065;SDS011;10193;48.884;9.182;2024-01-30T10:07:52;6.28;;;5.68;;
20065;SDS011;10193;48.884;9.182;2024-01-30T10:10:21;6.47;;;5.70;;
20065;SDS011;10193;48.884;9.182;2024-01-30T10:12:48;6.32;;;5.68;;
20065;SDS011;10193;48.884;9.182;2024-01-30T10:15:15;7.45;;;6.03;;
20065;SDS011;10193;48.884;9.182;2024-01-30T10:17:43;6.30;;;5.68;;
20065;SDS011;10193;48.884;9.182;2024-01-30T10:20:10;6.40;;;5.80;;
20065;SDS011;10193;48.884;9.182;2024-01-30T10:22:39;7.72;;;5.80;;
20065;SDS011;10193;48.884;9.182;2024-01-30T10:25:07;8.15;;;5.95;;
20065;SDS011;10193;48.884;9.182;2024-01-30T10:27:35;6.43;;;5.65;;
20065;SDS011;10193;48.884;9.182;2024-01-30T10:30:02;6.30;;;5.70;;
20065;SDS011;10193;48.884;9.182;2024-01-30T10:32:29;5.97;;;5.47;;
20065;SDS011;10193;48.884;9.182;2024-01-30T10:34:56;8.07;;;5.70;;
20065;SDS011;10193;48.884;9.182;2024-01-30T10:37:24;6.47;;;5.78;;
20065;SDS011;10193;48.884;9.182;2024-01-30T10:39:53;7.90;;;6.10;;
20065;SDS011;10193;48.884;9.182;2024-01-30T10:42:23;6.40;;;5.75;;
20065;SDS011;10193;48.884;9.182;2024-01-30T10:44:55;8.15;;;6.22;;
20065;SDS011;10193;48.884;9.182;2024-01-30T10:47:26;6.50;;;5.82;;
20065;SDS011;10193;48.884;9.182;2024-01-30T10:49:53;7.75;;;5.68;;
20065;SDS011;10193;48.884;9.182;2024-01-30T10:52:21;7.22;;;5.30;;
20065;SDS011;10193;48.884;9.182;2024-01-30T10:54:50;6.40;;;5.68;;
20065;SDS011;10193;48.884;9.182;2024-01-30T10:57:19;6.72;;;5.80;;
20065;SDS011;10193;48.884;9.182;2024-01-30T10:59:47;7.18;;;6.00;;
20065;SDS011;10193;48.884;9.182;2024-01-30T11:02:15;6.07;;;5.47;;
20065;SDS011;10193;48.884;9.182;2024-01-30T11:04:42;7.85;;;5.70;;
20065;SDS011;10193;48.884;9.182;2024-01-30T11:07:15;6.32;;;5.55;;
20065;SDS011;10193;48.884;9.182;2024-01-30T11:09:48;7.72;;;5.78;;
20065;SDS011;10193;48.884;9.182;2024-01-30T11:12:15;6.80;;;5.75;;
20065;SDS011;10193;48.884;9.182;2024-01-30T11:14:43;6.95;;;5.38;;
20065;SDS011;10193;48.884;9.182;2024-01-30T11:17:10;6.45;;;5.47;;
20065;SDS011;10193;48.884;9.182;2024-01-30T11:19:38;7.13;;;5.80;;
20065;SDS011;10193;48.884;9.182;2024-01-30T11:22:06;6.45;;;5.65;;
20065;SDS011;10193;48.884;9.182;2024-01-30T11:24:36;6.32;;;5.72;;
20065;SDS011;10193;48.884;9.182;2024-01-30T11:27:07;6.20;;;5.15;;
20065;SDS011;10193;48.884;9.182;2024-01-30T11:29:35;8.30;;;5.80;;
20065;SDS011;10193;48.884;9.182;2024-01-30T11:32:04;5.55;;;5.05;;
20065;SDS011;10193;48.884;9.182;2024-01-30T11:34:32;7.72;;;5.53;;
20065;SDS011;10193;48.884;9.182;2024-01-30T11:37:01;7.10;;;5.80;;
20065;SDS011;10193;48.884;9.182;2024-01-30T11:39:30;6.05;;;5.45;;
20065;SDS011;10193;48.884;9.182;2024-01-30T11:41:56;5.50;;;4.82;;
20065;SDS011;10193;48.884;9.182;2024-01-30T11:44:24;5.88;;;5.28;;
20065;SDS011;10193;48.884;9.182;2024-01-30T11:46:51;7.15;;;5.80;;
20065;SDS011;10193;48.884;9.182;2024-01-30T11:49:20;6.88;;;5.53;;
20065;SDS011;10193;48.884;9.182;2024-01-30T11:51:47;5.65;;;5.10;;
20065;SDS011;10193;48.884;9.182;2024-01-30T11:54:14;6.13;;;5.53;;
20065;SDS011;10193;48.884;9.182;2024-01-30T11:56:42;6.13;;;5.03;;
20065;SDS011;10193;48.884;9.182;2024-01-30T11:59:09;6.82;;;5.35;;
20065;SDS011;10193;48.884;9.182;2024-01-30T12:01:35;6.45;;;5.47;;
20065;SDS011;10193;48.884;9.182;2024-01-30T12:04:02;5.70;;;5.18;;
20065;SDS011;10193;48.884;9.182;2024-01-30T12:06:34;6.53;;;5.25;;
20065;SDS011;10193;48.884;9.182;2024-01-30T12:09:02;6.55;;;5.45;;
20065;SDS011;10193;48.884;9.182;2024-01-30T12:11:30;6.90;;;5.97;;
20065;SDS011;10193;48.884;9.182;2024-01-30T12:13:56;7.25;;;5.55;;
20065;SDS011;10193;48.884;9.182;2024-01-30T12:16:23;6.00;;;5.40;;
20065;SDS011;10193;48.884;9.182;2024-01-30T12:18:58;7.05;;;5.85;;
20065;SDS011;10193;48.884;9.182;2024-01-30T12:21:25;7.43;;;5.50;;
20065;SDS011;10193;48.884;9.182;2024-01-30T12:23:53;6.55;;;5.50;;
20065;SDS011;10193;48.884;9.182;2024-01-30T12:26:20;7.00;;;5.72;;
20065;SDS011;10193;48.884;9.182;2024-01-30T12:28:47;6.60;;;5.28;;
20065;SDS011;10193;48.884;9.182;2024-01-30T12:31:14;6.53;;;5.47;;
20065;SDS011;10193;48.884;9.182;2024-01-30T12:33:41;6.75;;;6.00;;
20065;SDS011;10193;48.884;9.182;2024-01-30T12:36:08;7.07;;;5.43;;
20065;SDS011;10193;48.884;9.182;2024-01-30T12:38:35;6.40;;;5.80;;
20065;SDS011;10193;48.884;9.182;2024-01-30T12:41:03;6.63;;;5.78;;
20065;SDS011;10193;48.884;9.182;2024-01-30T12:43:32;7.90;;;5.45;;
20065;SDS011;10193;48.884;9.182;2024-01-30T12:45:59;6.35;;;5.50;;
20065;SDS011;10193;48.884;9.182;2024-01-30T12:48:26;5.20;;;4.65;;
20065;SDS011;10193;48.884;9.182;2024-01-30T12:50:54;6.18;;;5.03;;
20065;SDS011;10193;48.884;9.182;2024-01-30T12:53:20;4.75;;;4.13;;
20065;SDS011;10193;48.884;9.182;2024-01-30T12:55:47;5.55;;;4.63;;
20065;SDS011;10193;48.884;9.182;2024-01-30T12:58:16;5.63;;;4.93;;
20065;SDS011;10193;48.884;9.182;2024-01-30T13:00:42;6.03;;;5.22;;
20065;SDS011;10193;48.884;9.182;2024-01-30T13:03:10;7.75;;;6.20;;
20065;SDS011;10193;48.884;9.182;2024-01-30T13:05:36;7.40;;;6.05;;
20065;SDS011;10193;48.884;9.182;2024-01-30T13:08:03;7.70;;;6.03;;
20065;SDS011;10193;48.884;9.182;2024-01-30T13:10:30;6.85;;;5.95;;
20065;SDS011;10193;48.884;9.182;2024-01-30T13:12:57;6.85;;;6.03;;
20065;SDS011;10193;48.884;9.182;2024-01-30T13:15:25;6.15;;;5.55;;
20065;SDS011;10193;48.884;9.182;2024-01-30T13:17:52;6.90;;;5.93;;
20065;SDS011;10193;48.884;9.182;2024-01-30T13:20:19;6.50;;;5.90;;
20065;SDS011;10193;48.884;9.182;2024-01-30T13:22:47;6.88;;;6.03;;
20065;SDS011;10193;48.884;9.182;2024-01-30T13:25:14;6.45;;;5.85;;
20065;SDS011;10193;48.884;9.182;2024-01-30T13:27:41;8.88;;;6.63;;
20065;SDS011;10193;48.884;9.182;2024-01-30T13:30:08;9.25;;;6.63;;
20065;SDS011;10193;48.884;9.182;2024-01-30T13:32:36;8.70;;;6.43;;
20065;SDS011;10193;48.884;9.182;2024-01-30T13:35:03;8.73;;;7.20;;
20065;SDS011;10193;48.884;9.182;2024-01-30T13:37:30;9.98;;;7.00;;
20065;SDS011;10193;48.884;9.182;2024-01-30T13:39:57;9.43;;;7.15;;
20065;SDS011;10193;48.884;9.182;2024-01-30T13:42:24;10.27;;;6.68;;
20065;SDS011;10193;48.884;9.182;2024-01-30T13:44:50;7.45;;;6.63;;
20065;SDS011;10193;48.884;9.182;2024-01-30T13:47:17;8.23;;;6.38;;
20065;SDS011;10193;48.884;9.182;2024-01-30T13:49:47;8.55;;;6.55;;
20065;SDS011;10193;48.884;9.182;2024-01-30T13:52:14;7.43;;;6.63;;
20065;SDS011;10193;48.884;9.182;2024-01-30T13:54:41;6.25;;;5.65;;
20065;SDS011;10193;48.884;9.182;2024-01-30T13:57:08;7.95;;;5.80;;
20065;SDS011;10193;48.884;9.182;2024-01-30T13:59:35;6.88;;;5.78;;
20065;SDS011;10193;48.884;9.182;2024-01-30T14:02:01;7.20;;;5.90;;
20065;SDS011;10193;48.884;9.182;2024-01-30T14:04:28;6.38;;;5.72;;
20065;SDS011;10193;48.884;9.182;2024-01-30T14:06:56;6.30;;;5.70;;
20065;SDS011;10193;48.884;9.182;2024-01-30T14:09:23;7.97;;;5.97;;
20065;SDS011;10193;48.884;9.182;2024-01-30T14:11:50;6.53;;;5.75;;
20065;SDS011;10193;48.884;9.182;2024-01-30T14:14:16;6.80;;;6.10;;
20065;SDS011;10193;48.884;9.182;2024-01-30T14:16:43;6.93;;;5.97;;
20065;SDS011;10193;48.884;9.182;2024-01-30T14:19:10;7.30;;;6.18;;
20065;SDS011;10193;48.884;9.182;2024-01-30T14:21:36;7.80;;;6.10;;
20065;SDS011;10193;48.884;9.182;2024-01-30T14:24:05;6.80;;;5.85;;
20065;SDS011;10193;48.884;9.182;2024-01-30T14:26:31;7.57;;;5.72;;
20065;SDS011;10193;48.884;9.182;2024-01-30T14:28:58;7.22;;;6.43;;
20065;SDS011;10193;48.884;9.182;2024-01-30T14:31:25;9.10;;;6.10;;
20065;SDS011;10193;48.884;9.182;2024-01-30T14:33:51;6.72;;;6.07;;
20065;SDS011;10193;48.884;9.182;2024-01-30T14:36:20;7.70;;;6.20;;
20065;SDS011;10193;48.884;9.182;2024-01-30T14:38:46;6.97;;;6.28;;
20065;SDS011;10193;48.884;9.182;2024-01-30T14:41:14;8.75;;;5.88;;
20065;SDS011;10193;48.884;9.182;2024-01-30T14:43:41;6.63;;;5.95;;
20065;SDS011;10193;48.884;9.182;2024-01-30T14:46:08;6.93;;;5.78;;
20065;SDS011;10193;48.884;9.182;2024-01-30T14:48:35;6.15;;;5.10;;